Time;durP1;ratioP1;P1;durP2;ratioP2;P2;SDS_P1;SDS_P2;PMS_P1;PMS_P2;Temp;Humidity;BMP_temperature;BMP_pressure;BME280_temperature;BME280_humidity;BME280_pressure;Samples;Min_cycle;Max_cycle;Signal;HPM_P1;HPM_P2
2022/06/01 00:01:06;;;;;;;3.70;1.70;;;;;;;22.22;59.60;98966.03;5053471;28;20174;-87
2022/06/01 00:03:35;;;;;;;4.07;1.97;;;;;;;22.17;59.75;98980.88;5053209;28;20173;-87
2022/06/01 00:06:00;;;;;;;3.93;2.40;;;;;;;22.04;60.30;98971.44;5053190;28;20169;-86
2022/06/01 00:08:26;;;;;;;6.63;2.50;;;;;;;21.99;60.60;98970.22;5053066;28;20208;-86
2022/06/01 00:10:52;;;;;;;16.50;6.17;;;;;;;21.99;60.91;98968.38;5068847;28;20178;-86
2022/06/01 00:13:19;;;;;;;13.53;4.60;;;;;;;21.89;61.43;98962.31;5053078;28;20174;-86
2022/06/01 00:15:45;;;;;;;8.07;4.13;;;;;;;21.81;61.30;98964.06;5053324;28;20166;-87
2022/06/01 00:18:10;;;;;;;5.93;2.97;;;;;;;21.76;61.38;98967.19;5053360;28;20166;-86
2022/06/01 00:20:37;;;;;;;8.60;2.83;;;;;;;21.67;62.00;98967.28;5053010;28;20192;-86
2022/06/01 00:23:02;;;;;;;7.00;2.13;;;;;;;21.62;61.88;98965.06;5053565;28;20173;-86
2022/06/01 00:25:28;;;;;;;4.53;2.20;;;;;;;21.57;61.97;98961.19;5052928;28;20178;-86
2022/06/01 00:27:54;;;;;;;3.93;2.07;;;;;;;21.44;62.69;98962.41;5052867;28;20190;-86
2022/06/01 00:30:21;;;;;;;13.77;4.83;;;;;;;21.57;62.52;98962.03;5052925;28;20562;-86
2022/06/01 00:32:47;;;;;;;10.47;4.17;;;;;;;21.62;62.03;98965.06;5052876;28;20201;-86
2022/06/01 00:35:15;;;;;;;5.60;2.63;;;;;;;21.64;62.06;98978.28;5052860;28;20579;-86
2022/06/01 00:37:40;;;;;;;7.60;2.97;;;;;;;21.61;61.86;98968.75;5053117;28;20166;-86
2022/06/01 00:40:08;;;;;;;5.40;2.53;;;;;;;21.54;61.93;98977.53;5052847;28;20510;-86
2022/06/01 00:42:36;;;;;;;5.63;2.60;;;;;;;21.51;62.31;98976.00;5053201;28;20174;-86
2022/06/01 00:45:03;;;;;;;6.80;2.50;;;;;;;21.47;62.10;98977.28;5052743;28;20228;-86
2022/06/01 00:47:29;;;;;;;4.77;2.43;;;;;;;21.42;62.56;98969.75;5052940;28;20200;-86
2022/06/01 00:50:02;;;;;;;4.70;2.57;;;;;;;21.29;62.66;98963.94;5052707;28;20174;-86
2022/06/01 00:52:36;;;;;;;6.13;2.80;;;;;;;21.31;62.53;98958.47;5053011;28;20167;-86
2022/06/01 00:55:07;;;;;;;5.13;2.67;;;;;;;21.27;62.56;98963.28;5051794;28;20205;-86
2022/06/01 00:57:33;;;;;;;4.00;2.20;;;;;;;21.23;62.66;98963.72;5055723;28;20675;-86
2022/06/01 01:00:05;;;;;;;3.77;1.90;;;;;;;21.24;62.82;98955.56;5056473;28;20174;-86
2022/06/01 01:02:31;;;;;;;4.17;2.07;;;;;;;21.14;62.82;98954.81;5056371;28;20193;-86
2022/06/01 01:04:57;;;;;;;4.63;2.30;;;;;;;21.15;62.80;98958.28;5055426;28;20556;-86
2022/06/01 01:07:25;;;;;;;3.37;2.17;;;;;;;21.19;62.52;98955.19;5056510;28;20175;-86
2022/06/01 01:09:51;;;;;;;2.67;1.63;;;;;;;21.19;62.17;98955.19;5056860;28;20178;-86
2022/06/01 01:12:18;;;;;;;3.33;2.00;;;;;;;21.15;62.56;98956.47;5055538;28;20561;-86
2022/06/01 01:14:45;;;;;;;3.30;1.90;;;;;;;21.09;62.78;98957.09;5056197;28;20181;-86
2022/06/01 01:17:12;;;;;;;4.20;2.43;;;;;;;21.07;62.83;98947.59;5056407;28;20174;-86
2022/06/01 01:19:46;;;;;;;5.07;2.63;;;;;;;21.03;63.25;98946.16;5056113;28;20174;-86
2022/06/01 01:22:31;;;;;;;5.27;2.00;;;;;;;21.01;63.06;98948.13;5056099;28;20587;-86
2022/06/01 01:25:17;;;;;;;3.60;2.10;;;;;;;20.86;64.12;98944.31;5056049;28;20154;-86
2022/06/01 01:27:45;;;;;;;4.57;2.30;;;;;;;20.82;64.51;98947.28;5055225;28;20202;-86
2022/06/01 01:30:36;;;;;;;3.17;1.87;;;;;;;20.74;64.82;98944.53;5055926;28;20178;-86
2022/06/01 01:33:13;;;;;;;4.43;2.03;;;;;;;20.70;64.74;98937.81;5056146;28;20177;-86
2022/06/01 01:35:41;;;;;;;4.03;1.73;;;;;;;20.70;64.64;98939.66;5071585;28;20180;-86
2022/06/01 01:38:16;;;;;;;4.17;2.27;;;;;;;20.61;65.59;98940.53;5072267;28;20546;-86
2022/06/01 01:40:41;;;;;;;6.23;1.90;;;;;;;20.58;65.87;98941.66;5055798;28;20157;-86
2022/06/01 01:43:08;;;;;;;4.33;2.17;;;;;;;20.61;65.70;98952.03;5054767;28;20254;-86
2022/06/01 01:45:36;;;;;;;3.63;2.20;;;;;;;20.64;65.76;98950.88;5055627;28;20185;-86
2022/06/01 01:48:03;;;;;;;3.73;1.93;;;;;;;20.65;65.53;98948.06;5055524;28;20202;-86
2022/06/01 01:50:28;;;;;;;3.13;1.93;;;;;;;20.68;65.30;98942.44;5055498;28;20569;-86
2022/06/01 01:52:54;;;;;;;2.93;2.00;;;;;;;20.73;65.07;98939.31;5055778;28;20170;-86
2022/06/01 01:55:58;;;;;;;5.77;2.43;;;;;;;20.68;65.08;98942.44;5055457;28;20611;-86
2022/06/01 01:58:39;;;;;;;5.20;2.20;;;;;;;20.58;65.26;98948.81;5071430;28;20185;-86
2022/06/01 02:01:16;;;;;;;4.93;2.30;;;;;;;20.56;64.84;98948.97;5054717;28;20185;-86
2022/06/01 02:06:03;;;;;;;4.40;2.00;;;;;;;20.53;64.89;98948.41;5054708;28;20261;-86
2022/06/01 02:06:57;;;;;;;4.57;2.27;;;;;;;20.47;64.91;98941.00;5055271;28;20655;-86
2022/06/01 02:09:23;;;;;;;5.40;2.30;;;;;;;20.40;65.08;98945.25;5055077;28;20201;-86
2022/06/01 02:14:53;;;;;;;2.93;1.67;;;;;;;20.23;64.98;98945.03;5055644;28;20242;-86
2022/06/01 02:17:37;;;;;;;4.40;2.27;;;;;;;20.30;64.39;98947.97;5055261;28;20162;-86
2022/06/01 02:20:05;;;;;;;5.53;2.13;;;;;;;20.26;64.52;98953.75;5071597;28;20521;-86
2022/06/01 02:22:34;;;;;;;7.17;2.47;;;;;;;20.23;64.69;98952.16;5054935;28;20259;-86
2022/06/01 02:25:00;;;;;;;5.70;2.20;;;;;;;20.20;65.54;98947.94;5070584;28;20537;-86
2022/06/01 02:27:25;;;;;;;4.57;2.50;;;;;;;20.10;65.55;98957.78;5055091;28;20177;-86
2022/06/01 02:29:57;;;;;;;3.47;2.07;;;;;;;20.02;65.97;98959.53;5070572;28;20275;-86
2022/06/01 02:32:26;;;;;;;6.87;2.10;;;;;;;20.02;65.60;98960.34;5070520;28;20618;-86
2022/06/01 02:34:54;;;;;;;6.17;1.87;;;;;;;20.02;65.72;98957.69;5070964;28;20174;-86
2022/06/01 02:37:22;;;;;;;3.87;2.33;;;;;;;20.00;65.73;98959.66;5054884;28;20218;-86
2022/06/01 02:39:53;;;;;;;4.47;2.40;;;;;;;20.04;65.78;98958.41;5053639;28;20211;-85
2022/06/01 02:42:31;;;;;;;2.90;1.73;;;;;;;20.10;65.23;98962.28;5070296;28;20698;-86
2022/06/01 02:44:57;;;;;;;3.60;2.00;;;;;;;20.13;64.81;98959.31;5054550;28;20176;-86
2022/06/01 02:47:24;;;;;;;4.33;1.87;;;;;;;20.04;64.93;98958.41;5054441;28;20264;-86
2022/06/01 02:49:49;;;;;;;3.33;1.73;;;;;;;19.96;65.33;98958.28;5054587;28;20173;-86
2022/06/01 02:52:15;;;;;;;3.73;2.13;;;;;;;19.92;65.66;98958.69;5054227;28;20260;-85
2022/06/01 02:54:40;;;;;;;2.93;2.00;;;;;;;19.88;65.99;98958.16;5053663;28;20258;-86
2022/06/01 02:57:07;;;;;;;3.60;2.00;;;;;;;19.79;66.47;98958.16;5053432;28;20201;-86
2022/06/01 02:59:32;;;;;;;4.27;1.97;;;;;;;19.79;66.54;98953.66;5054393;28;20204;-86
2022/06/01 03:01:59;;;;;;;6.57;2.60;;;;;;;19.72;67.29;98954.38;5053495;28;20189;-86
2022/06/01 03:04:26;;;;;;;4.50;2.13;;;;;;;19.80;67.17;98958.03;5054099;28;20584;-86
2022/06/01 03:06:52;;;;;;;4.27;1.90;;;;;;;19.79;67.21;98952.81;5054054;28;20257;-86
2022/06/01 03:09:18;;;;;;;5.10;2.60;;;;;;;19.91;66.92;98952.53;5069974;28;20260;-86
2022/06/01 03:11:44;;;;;;;4.50;2.00;;;;;;;19.98;66.93;98956.31;5053946;28;20265;-86
2022/06/01 03:14:09;;;;;;;4.87;2.47;;;;;;;20.06;66.51;98956.41;5053928;28;20196;-86
2022/06/01 03:16:34;;;;;;;4.27;2.17;;;;;;;20.11;66.13;98958.63;5054161;28;20169;-87
2022/06/01 03:19:00;;;;;;;3.97;1.90;;;;;;;20.14;66.39;98955.69;5052063;28;20206;-86
2022/06/01 03:21:25;;;;;;;2.87;1.60;;;;;;;20.10;66.88;98968.44;5054091;28;20256;-86
2022/06/01 03:23:51;;;;;;;5.73;2.33;;;;;;;20.05;66.96;98968.03;5053771;28;20252;-86
2022/06/01 03:26:16;;;;;;;3.80;2.23;;;;;;;20.04;67.38;98966.38;5052744;28;20346;-86
2022/06/01 03:28:42;;;;;;;4.50;2.20;;;;;;;20.12;67.53;98963.00;5053658;28;20170;-86
2022/06/01 03:31:07;;;;;;;8.00;2.23;;;;;;;20.20;67.30;98969.25;5053892;28;20595;-87
2022/06/01 03:33:35;;;;;;;4.03;2.30;;;;;;;20.25;66.75;98968.03;5052672;28;20186;-86
2022/06/01 03:36:02;;;;;;;5.43;2.83;;;;;;;20.28;66.51;98970.41;5054423;28;20180;-86
2022/06/01 03:38:28;;;;;;;12.97;5.50;;;;;;;20.28;66.35;98971.25;5053461;28;20217;-86
2022/06/01 03:40:54;;;;;;;12.47;5.23;;;;;;;20.32;66.46;98974.44;5053485;28;20169;-86
2022/06/01 03:43:19;;;;;;;15.27;7.17;;;;;;;20.37;66.12;98980.16;5053679;28;20174;-86
2022/06/01 03:46:00;;;;;;;14.93;6.10;;;;;;;20.38;66.39;98981.84;5053684;28;20182;-86
2022/06/01 03:48:31;;;;;;;6.87;2.83;;;;;;;20.31;67.01;98978.91;5053364;28;20169;-86
2022/06/01 03:50:58;;;;;;;7.13;2.87;;;;;;;20.35;67.01;98982.13;5053306;28;20169;-86
2022/06/01 03:53:24;;;;;;;9.60;3.33;;;;;;;20.39;67.16;98972.88;5053548;28;20243;-87
2022/06/01 03:55:51;;;;;;;5.27;2.17;;;;;;;20.39;67.52;98970.22;5053245;28;20696;-86
2022/06/01 03:58:20;;;;;;;8.80;3.03;;;;;;;20.39;67.63;98968.38;5052196;28;20236;-86
2022/06/01 04:00:46;;;;;;;4.43;2.40;;;;;;;20.42;66.78;98973.41;5053390;28;20556;-86
2022/06/01 04:03:11;;;;;;;5.10;2.20;;;;;;;20.55;66.81;98973.06;5053123;28;20173;-86
2022/06/01 04:05:38;;;;;;;4.43;2.37;;;;;;;20.63;66.31;98975.84;5053408;28;20256;-86
2022/06/01 04:08:05;;;;;;;6.63;2.70;;;;;;;20.71;65.88;98975.94;5053114;28;20173;-86
2022/06/01 04:10:31;;;;;;;8.33;2.60;;;;;;;20.77;65.31;98978.88;5053307;28;20197;-86
2022/06/01 04:12:57;;;;;;;4.70;2.73;;;;;;;20.85;65.34;98975.44;5053336;28;20173;-87
2022/06/01 04:15:23;;;;;;;3.63;1.97;;;;;;;20.91;64.89;98974.03;5053017;28;20182;-86
2022/06/01 04:17:48;;;;;;;6.10;1.90;;;;;;;20.92;64.84;98976.53;5068697;28;20768;-86
2022/06/01 04:20:13;;;;;;;5.33;2.00;;;;;;;20.99;64.71;98988.25;5053791;28;20174;-86
2022/06/01 04:22:43;;;;;;;3.20;1.90;;;;;;;21.05;64.96;98982.31;5053000;28;20284;-86
2022/06/01 04:25:13;;;;;;;6.77;1.83;;;;;;;21.18;64.82;98980.16;5052943;28;20170;-86
2022/06/01 04:27:38;;;;;;;4.80;2.23;;;;;;;21.31;64.30;98982.44;5052888;28;20193;-86
2022/06/01 04:30:07;;;;;;;5.37;2.30;;;;;;;21.42;64.29;98984.91;5053874;28;20614;-86
2022/06/01 04:32:32;;;;;;;3.70;1.63;;;;;;;21.46;64.88;98980.13;5056941;28;20524;-86
2022/06/01 04:34:59;;;;;;;4.67;1.80;;;;;;;21.49;65.10;98979.81;5057191;28;20239;-86
2022/06/01 04:37:24;;;;;;;5.63;2.43;;;;;;;21.58;65.61;98979.72;5056750;28;20166;-86
2022/06/01 04:39:50;;;;;;;3.27;1.93;;;;;;;21.73;65.79;98982.66;5056786;28;20185;-86
2022/06/01 04:42:15;;;;;;;8.70;2.60;;;;;;;21.79;65.94;98982.06;5056773;28;20170;-86
2022/06/01 04:44:41;;;;;;;4.63;2.47;;;;;;;21.91;66.28;98991.50;5057281;28;20623;-86
2022/06/01 04:47:08;;;;;;;6.27;2.60;;;;;;;22.01;65.81;98994.94;5056696;28;20262;-86
2022/06/01 04:49:34;;;;;;;2.93;1.90;;;;;;;22.08;64.62;98992.47;5056628;28;20170;-86
2022/06/01 04:51:59;;;;;;;14.03;2.40;;;;;;;22.11;63.21;98990.34;5055937;28;20216;-87
2022/06/01 04:54:25;;;;;;;3.83;1.67;;;;;;;22.08;62.87;98989.81;5056584;28;20170;-86
2022/06/01 04:56:51;;;;;;;4.73;1.90;;;;;;;22.25;63.13;98995.09;5056397;28;20196;-87
2022/06/01 04:59:17;;;;;;;3.10;1.87;;;;;;;22.31;62.57;98988.28;5055452;28;20198;-86
2022/06/01 05:01:43;;;;;;;4.70;2.40;;;;;;;22.18;61.55;98999.38;5055495;28;20580;-86
2022/06/01 05:04:09;;;;;;;3.03;1.63;;;;;;;22.30;62.54;99000.78;5056891;28;20174;-86
2022/06/01 05:06:34;;;;;;;3.33;1.73;;;;;;;22.38;61.96;99006.19;5056377;28;20529;-87
2022/06/01 05:09:00;;;;;;;10.13;2.03;;;;;;;22.51;61.75;99003.09;5056275;28;20249;-86
2022/06/01 05:11:25;;;;;;;7.77;2.47;;;;;;;22.63;61.71;99001.84;5056777;28;20315;-86
2022/06/01 05:13:51;;;;;;;7.93;2.20;;;;;;;22.63;60.53;99001.84;5056201;28;20176;-85
2022/06/01 05:16:17;;;;;;;3.23;1.80;;;;;;;22.72;61.29;99002.72;5056171;28;20174;-86
2022/06/01 05:18:43;;;;;;;4.90;1.97;;;;;;;23.23;59.76;99002.56;5056269;28;20205;-85
2022/06/01 05:21:08;;;;;;;6.93;2.00;;;;;;;23.54;58.91;99000.97;5056102;28;20616;-86
2022/06/01 05:23:34;;;;;;;4.40;1.67;;;;;;;23.77;58.51;99007.31;5056040;28;20630;-85
2022/06/01 05:26:00;;;;;;;4.03;1.77;;;;;;;23.90;58.38;99008.69;5056050;28;20174;-85
2022/06/01 05:28:28;;;;;;;2.80;1.87;;;;;;;23.93;57.28;99011.84;5056247;28;20173;-86
2022/06/01 05:31:02;;;;;;;4.13;2.13;;;;;;;23.99;58.38;99016.53;5055915;28;20181;-86
2022/06/01 05:33:27;;;;;;;4.30;1.97;;;;;;;24.17;58.15;99016.38;5055881;28;20160;-86
2022/06/01 05:35:53;;;;;;;6.87;1.90;;;;;;;24.32;58.42;99007.47;5071473;28;20174;-86
2022/06/01 05:38:19;;;;;;;5.33;2.30;;;;;;;24.32;57.00;99004.78;5056240;28;20209;-86
2022/06/01 05:40:44;;;;;;;5.77;2.03;;;;;;;24.29;56.40;99010.50;5056013;28;20169;-86
2022/06/01 05:43:13;;;;;;;3.43;1.90;;;;;;;24.34;57.31;99010.81;5054777;28;20182;-85
2022/06/01 05:45:40;;;;;;;4.73;1.83;;;;;;;24.47;57.20;99010.31;5072192;28;20398;-86
2022/06/01 05:48:08;;;;;;;4.17;1.90;;;;;;;24.58;57.22;99003.75;5055855;28;20170;-87
2022/06/01 05:50:34;;;;;;;4.80;2.33;;;;;;;24.67;56.80;99006.22;5055542;28;20193;-86
2022/06/01 05:53:00;;;;;;;3.73;2.00;;;;;;;24.80;56.53;98993.13;5054537;28;20209;-86
2022/06/01 05:55:25;;;;;;;5.63;1.57;;;;;;;24.89;56.09;98991.25;5055730;28;20174;-86
2022/06/01 05:57:51;;;;;;;4.87;1.60;;;;;;;24.85;53.99;98992.59;5055485;28;20224;-86
2022/06/01 06:00:17;;;;;;;4.67;1.50;;;;;;;24.92;55.16;98997.09;5055618;28;20197;-86
2022/06/01 06:02:43;;;;;;;4.33;1.50;;;;;;;25.05;53.35;98997.34;5055592;28;20223;-86
2022/06/01 06:07:55;;;;;;;4.33;1.53;;;;;;;25.31;53.05;98999.75;5055744;28;20161;-86
2022/06/01 06:10:20;;;;;;;4.50;1.73;;;;;;;25.46;51.08;99006.03;5054199;28;20517;-85
2022/06/01 06:12:46;;;;;;;3.07;1.37;;;;;;;25.43;50.18;99006.38;5055059;28;20607;-86
2022/06/01 06:15:11;;;;;;;5.37;1.10;;;;;;;25.66;50.26;99009.06;5055096;28;20185;-86
2022/06/01 06:17:37;;;;;;;4.00;1.53;;;;;;;25.91;51.30;99012.41;5054919;28;20573;-86
2022/06/01 06:20:04;;;;;;;5.40;2.30;;;;;;;25.92;48.37;99006.84;5055484;28;20177;-84
2022/06/01 06:22:29;;;;;;;5.80;2.30;;;;;;;25.91;48.72;99013.25;5054857;28;20169;-86
2022/06/01 06:24:55;;;;;;;4.77;2.17;;;;;;;26.14;49.82;99014.09;5070540;28;20331;-85
2022/06/01 06:27:20;;;;;;;5.53;1.83;;;;;;;26.32;48.16;99007.53;5054800;28;20256;-86
2022/06/01 06:29:46;;;;;;;2.40;1.10;;;;;;;26.42;47.74;99005.38;5055073;28;20584;-85
2022/06/01 06:32:12;;;;;;;2.60;1.47;;;;;;;26.54;47.78;99014.69;5053787;28;20178;-86
2022/06/01 06:34:38;;;;;;;2.50;1.10;;;;;;;26.66;46.27;99015.88;5054971;28;20180;-85
2022/06/01 06:37:04;;;;;;;8.00;1.77;;;;;;;26.80;46.66;99010.56;5054598;28;20705;-86
2022/06/01 06:39:30;;;;;;;7.53;2.10;;;;;;;27.13;45.58;99013.63;5054504;28;20220;-86
2022/06/01 06:41:56;;;;;;;2.60;1.33;;;;;;;27.34;45.21;99013.69;5054524;28;20206;-86
2022/06/01 06:44:21;;;;;;;3.67;1.23;;;;;;;27.64;46.70;99016.31;5054669;28;20637;-86
2022/06/01 06:46:47;;;;;;;1.60;0.82;;;;;;;28.02;46.68;99023.94;5054628;28;20243;-86
2022/06/01 06:49:12;;;;;;;2.40;1.60;;;;;;;28.26;45.87;99019.16;5069989;28;20174;-86
2022/06/01 06:51:38;;;;;;;3.90;1.58;;;;;;;28.43;45.06;99020.56;5053319;28;20177;-86
2022/06/01 06:54:04;;;;;;;2.47;1.30;;;;;;;28.61;43.01;99023.56;5054199;28;20178;-86
2022/06/01 06:56:29;;;;;;;2.15;1.13;;;;;;;28.62;42.99;99014.47;5054229;28;20193;-86
2022/06/01 06:58:55;;;;;;;2.22;1.27;;;;;;;28.72;42.35;99024.91;5054043;28;20190;-86
2022/06/01 07:01:21;;;;;;;2.28;1.13;;;;;;;28.82;42.55;99010.03;5054124;28;20178;-86
2022/06/01 07:03:46;;;;;;;2.47;1.05;;;;;;;29.04;42.04;99008.88;5054336;28;20193;-87
2022/06/01 07:06:12;;;;;;;5.43;1.55;;;;;;;28.99;41.81;98997.84;5054232;28;20174;-86
2022/06/01 07:08:41;;;;;;;4.57;1.73;;;;;;;29.03;42.07;99001.00;5053960;28;20165;-86
2022/06/01 07:11:06;;;;;;;5.20;1.63;;;;;;;29.35;42.17;99005.69;5054414;28;20292;-86
2022/06/01 07:13:33;;;;;;;7.00;2.83;;;;;;;29.71;41.22;99005.34;5053882;28;20257;-86
2022/06/01 07:16:07;;;;;;;10.52;2.00;;;;;;;29.81;40.13;99003.94;5069546;28;20182;-86
2022/06/01 07:18:34;;;;;;;2.78;1.30;;;;;;;29.68;41.42;99001.19;5053754;28;20238;-87
2022/06/01 07:21:00;;;;;;;4.90;1.67;;;;;;;29.72;40.75;99007.00;5053759;28;20170;-86
2022/06/01 07:23:26;;;;;;;2.75;1.23;;;;;;;29.85;39.40;99007.06;5053723;28;20256;-86
2022/06/01 07:25:53;;;;;;;2.35;1.20;;;;;;;29.76;39.52;98997.47;5053964;28;20174;-86
2022/06/01 07:28:21;;;;;;;3.42;1.05;;;;;;;29.88;41.05;99006.66;5053909;28;20166;-86
2022/06/01 07:30:49;;;;;;;2.92;1.27;;;;;;;30.11;41.82;98995.44;5053591;28;20170;-87
2022/06/01 07:33:15;;;;;;;3.80;1.10;;;;;;;30.31;40.02;99002.50;5053790;28;20177;-87
2022/06/01 07:35:40;;;;;;;3.10;1.30;;;;;;;30.12;39.84;98995.22;5054095;28;20243;-87
2022/06/01 07:43:34;;;;;;;4.05;1.67;;;;;;;30.37;37.63;98996.25;5053926;28;20245;-86
2022/06/01 07:46:00;;;;;;;3.17;1.10;;;;;;;30.43;38.68;99000.84;5053349;28;20236;-87
2022/06/01 07:48:25;;;;;;;2.33;1.27;;;;;;;30.63;37.98;98998.09;5053277;28;20627;-86
2022/06/01 07:50:51;;;;;;;2.33;1.30;;;;;;;30.78;38.62;98987.84;5053249;28;20166;-87
2022/06/01 07:53:17;;;;;;;7.90;1.38;;;;;;;30.95;39.74;98996.34;5053451;28;20170;-86
2022/06/01 07:55:43;;;;;;;4.28;1.35;;;;;;;31.19;38.92;99000.19;5053668;28;20295;-86
2022/06/01 07:58:09;;;;;;;1.73;0.88;;;;;;;31.27;38.61;98986.41;5052945;28;20201;-87
2022/06/01 08:00:35;;;;;;;3.03;1.10;;;;;;;31.29;40.30;98989.75;5053146;28;20178;-87
2022/06/01 08:03:01;;;;;;;4.32;1.20;;;;;;;31.42;38.01;98981.56;5053500;28;20178;-87
2022/06/01 08:05:27;;;;;;;2.50;0.98;;;;;;;30.94;37.51;98990.13;5052725;28;20544;-87
2022/06/01 08:07:52;;;;;;;2.92;1.23;;;;;;;30.84;37.88;98987.00;5053039;28;20196;-87
2022/06/01 08:10:20;;;;;;;2.50;1.25;;;;;;;31.15;39.01;98988.97;5053012;28;20618;-87
2022/06/01 08:15:30;;;;;;;2.25;1.13;;;;;;;31.72;37.82;98993.47;5053490;28;20520;-87
2022/06/01 08:17:57;;;;;;;3.22;1.33;;;;;;;31.80;37.73;99001.31;5053069;28;20189;-87
2022/06/01 08:20:24;;;;;;;3.17;1.05;;;;;;;31.92;37.96;98998.75;5052931;28;20169;-87
2022/06/01 08:22:50;;;;;;;2.53;1.05;;;;;;;32.08;38.29;98995.50;5052900;28;20257;-88
2022/06/01 08:25:16;;;;;;;2.75;0.93;;;;;;;32.36;38.82;99003.19;5068562;28;20209;-87
2022/06/01 08:27:43;;;;;;;4.10;1.30;;;;;;;32.19;36.55;99002.91;5052872;28;20661;-87
2022/06/01 08:30:09;;;;;;;3.00;1.20;;;;;;;32.06;36.93;98994.88;5052643;28;20243;-88
2022/06/01 08:32:35;;;;;;;4.65;1.10;;;;;;;32.20;38.08;98994.56;5069171;28;20489;-87
2022/06/01 08:35:02;;;;;;;1.50;0.80;;;;;;;32.36;38.22;98998.59;5066937;28;20257;-87
2022/06/01 08:37:27;;;;;;;1.65;0.88;;;;;;;32.48;35.80;98998.69;5050808;28;20197;-87
2022/06/01 08:39:53;;;;;;;1.13;0.60;;;;;;;32.67;35.63;99003.09;5050856;28;20209;-87
2022/06/01 08:42:23;;;;;;;1.88;0.88;;;;;;;32.63;35.85;98994.56;5066636;28;20197;-87
2022/06/01 08:44:50;;;;;;;3.45;1.05;;;;;;;32.70;34.29;98992.63;5050824;28;20181;-87
2022/06/01 08:47:18;;;;;;;2.45;1.08;;;;;;;32.79;34.86;98991.25;5050865;28;20683;-87
2022/06/01 08:49:45;;;;;;;2.72;1.00;;;;;;;33.04;35.91;98991.22;5052407;28;20174;-88
2022/06/01 08:52:11;;;;;;;5.93;1.02;;;;;;;33.13;34.63;98978.97;5051819;28;20618;-88
2022/06/01 08:54:37;;;;;;;1.67;0.75;;;;;;;33.17;34.48;98980.19;5050545;28;20474;-87
2022/06/01 08:57:07;;;;;;;2.08;0.98;;;;;;;33.29;34.73;98978.34;5049405;28;20295;-88
2022/06/01 08:59:47;;;;;;;2.78;0.90;;;;;;;33.23;34.77;98971.09;5050460;28;20197;-87
2022/06/01 09:02:34;;;;;;;4.00;1.20;;;;;;;33.40;34.29;98974.00;5050501;28;20164;-87
2022/06/01 09:05:11;;;;;;;1.92;0.93;;;;;;;33.55;35.01;98962.69;5049453;28;20678;-88
2022/06/01 09:07:52;;;;;;;4.82;1.13;;;;;;;33.71;35.34;98970.22;5051160;28;20161;-87
2022/06/01 09:10:42;;;;;;;2.17;0.88;;;;;;;33.97;32.29;98964.34;5053080;28;20247;-88
2022/06/01 09:13:12;;;;;;;11.63;6.45;;;;;;;33.87;32.54;98970.38;5052774;28;20166;-88
2022/06/01 09:15:53;;;;;;;5.18;2.38;;;;;;;33.92;31.30;98961.50;5051539;28;20162;-87
2022/06/01 09:18:23;;;;;;;2.47;1.27;;;;;;;33.83;32.61;98963.72;5055213;28;20189;-87
2022/06/01 09:23:33;;;;;;;4.70;1.33;;;;;;;34.03;31.47;98957.97;5056577;28;20168;-88
2022/06/01 09:25:59;;;;;;;12.32;5.38;;;;;;;34.09;33.42;98953.53;5055989;28;20177;-87
2022/06/01 09:28:29;;;;;;;3.45;1.75;;;;;;;34.18;32.16;98954.81;5055936;28;20170;-87
2022/06/01 09:31:00;;;;;;;9.68;2.90;;;;;;;34.09;30.77;98957.09;5056390;28;20174;-87
2022/06/01 09:33:29;;;;;;;3.00;1.05;;;;;;;34.32;32.64;98964.41;5056281;28;20634;-88
2022/06/01 09:36:07;;;;;;;1.73;0.90;;;;;;;34.48;31.20;98956.34;5055745;28;20631;-87
2022/06/01 09:38:46;;;;;;;3.20;1.10;;;;;;;34.39;32.18;98957.78;5055660;28;20202;-88
2022/06/01 09:41:24;;;;;;;7.28;2.72;;;;;;;34.56;31.69;98958.75;5054819;28;20166;-88
2022/06/01 09:44:30;;;;;;;2.47;1.15;;;;;;;34.59;32.39;98952.78;5055861;28;20472;-87
2022/06/01 09:46:58;;;;;;;3.72;1.20;;;;;;;34.72;31.01;98951.72;5052649;28;20198;-88
2022/06/01 09:49:30;;;;;;;3.35;1.00;;;;;;;34.73;30.81;98952.53;5055525;28;20182;-87
2022/06/01 09:52:11;;;;;;;3.90;1.20;;;;;;;34.80;31.55;98947.81;5055765;28;20607;-88
2022/06/01 09:54:43;;;;;;;3.92;1.15;;;;;;;34.53;30.70;98947.47;5072372;28;20569;-88
2022/06/01 09:57:18;;;;;;;7.85;1.52;;;;;;;34.69;33.62;98945.94;5055472;28;20197;-88
2022/06/01 10:08:22;;;;;;;7.05;2.17;;;;;;;35.14;31.79;98944.16;5055730;28;20173;-89
2022/06/01 10:11:04;;;;;;;4.43;1.33;;;;;;;35.24;31.68;98936.19;5055122;28;20691;-88
2022/06/01 10:13:47;;;;;;;7.10;3.55;;;;;;;35.12;31.27;98940.84;5055376;28;20216;-89
2022/06/01 10:16:35;;;;;;;5.75;2.13;;;;;;;35.13;31.01;98931.59;5055326;28;20170;-88
2022/06/01 10:19:05;;;;;;;5.20;0.95;;;;;;;35.34;31.05;98927.34;5055441;28;20578;-89
2022/06/01 10:21:47;;;;;;;3.95;0.95;;;;;;;35.49;30.77;98928.44;5055148;28;20188;-88
2022/06/01 10:24:20;;;;;;;2.83;0.90;;;;;;;35.66;30.15;98929.34;5054890;28;20241;-89
2022/06/01 10:26:52;;;;;;;5.05;1.35;;;;;;;35.81;31.61;98928.75;5055073;28;20159;-88
2022/06/01 10:29:24;;;;;;;1.83;1.13;;;;;;;35.87;30.17;98922.31;5070444;28;20571;-89
2022/06/01 10:32:03;;;;;;;3.22;1.10;;;;;;;35.84;31.29;98928.25;5053707;28;20201;-89
2022/06/01 10:34:40;;;;;;;3.08;0.90;;;;;;;35.73;30.96;98921.81;5054970;28;20158;-89
2022/06/01 10:37:37;;;;;;;6.45;1.05;;;;;;;35.88;30.35;98917.69;5054896;28;20164;-90
2022/06/01 10:40:35;;;;;;;2.90;1.15;;;;;;;35.91;31.58;98912.53;5054886;28;20173;-89
2022/06/01 10:43:17;;;;;;;4.13;1.15;;;;;;;36.03;31.42;98918.78;5045455;28;20250;-90
2022/06/01 10:45:49;;;;;;;2.13;1.08;;;;;;;36.12;31.12;98920.00;5070151;28;20615;-89
2022/06/01 10:48:23;;;;;;;7.15;3.03;;;;;;;36.04;31.00;98912.22;5053431;28;20165;-89
2022/06/01 10:50:57;;;;;;;3.15;1.30;;;;;;;36.20;30.48;98916.00;5054623;28;20159;-89
2022/06/01 10:53:44;;;;;;;3.10;1.45;;;;;;;36.26;29.84;98920.47;5054872;28;20176;-89
2022/06/01 10:56:09;;;;;;;2.75;1.40;;;;;;;36.23;30.33;98920.97;5054409;28;20225;-87
2022/06/01 10:58:36;;;;;;;10.27;1.92;;;;;;;36.31;28.83;98921.38;5054422;28;20643;-89
2022/06/01 11:01:15;;;;;;;2.17;1.00;;;;;;;36.35;28.12;98916.22;5054171;28;20178;-89
2022/06/01 11:04:14;;;;;;;2.50;1.15;;;;;;;36.75;28.47;98914.06;5054971;28;20576;-90
2022/06/01 11:10:12;;;;;;;2.70;1.27;;;;;;;36.75;30.21;98907.78;5054529;28;20196;-90
2022/06/01 11:12:59;;;;;;;2.42;1.08;;;;;;;36.77;29.01;98895.50;5054482;28;20161;-88
2022/06/01 11:15:31;;;;;;;2.00;0.90;;;;;;;36.83;28.49;98890.94;5054149;28;20219;-89
2022/06/01 11:18:30;;;;;;;2.58;1.10;;;;;;;36.84;29.22;98896.16;5052779;28;20315;-90
2022/06/01 11:21:17;;;;;;;2.15;0.98;;;;;;;36.96;29.38;98893.28;5069412;28;20621;-89
2022/06/01 11:24:20;;;;;;;5.32;1.27;;;;;;;36.90;27.10;98889.66;5054268;28;20611;-89
2022/06/01 11:27:07;;;;;;;3.63;1.45;;;;;;;36.88;28.32;98885.53;5053867;28;20247;-90
2022/06/01 11:29:55;;;;;;;2.38;1.05;;;;;;;37.15;28.90;98875.47;5052690;28;20239;-88
2022/06/01 11:32:27;;;;;;;5.03;1.05;;;;;;;37.15;27.83;98880.09;5054174;28;20180;-89
2022/06/01 11:35:00;;;;;;;4.20;1.23;;;;;;;37.22;28.54;98873.34;5053841;28;20576;-91
2022/06/01 11:37:45;;;;;;;2.65;1.27;;;;;;;37.19;28.15;98873.03;5053479;28;20166;-90
2022/06/01 11:40:11;;;;;;;2.70;1.02;;;;;;;37.21;27.12;98871.72;5053086;28;20166;-90
2022/06/01 11:42:42;;;;;;;3.65;1.30;;;;;;;37.25;27.69;98870.09;5053650;28;20176;-90
2022/06/01 11:45:09;;;;;;;2.75;1.10;;;;;;;37.31;28.52;98870.97;5053393;28;20170;-89
2022/06/01 11:47:46;;;;;;;3.40;0.93;;;;;;;37.29;28.95;98871.22;5053673;28;20307;-90
2022/06/01 11:50:48;;;;;;;4.35;1.35;;;;;;;37.21;27.74;98868.16;5052395;28;20188;-89
2022/06/01 11:53:29;;;;;;;3.85;1.17;;;;;;;37.25;28.56;98863.78;5053244;28;20552;-89
2022/06/01 11:56:13;;;;;;;2.38;1.00;;;;;;;37.37;28.62;98862.53;5053386;28;20157;-90
2022/06/01 11:59:01;;;;;;;1.77;1.15;;;;;;;37.33;28.76;98866.06;5053178;28;20220;-88
2022/06/01 12:01:46;;;;;;;3.30;1.10;;;;;;;37.30;28.22;98861.09;5052342;28;20647;-90
2022/06/01 12:04:28;;;;;;;3.47;1.38;;;;;;;37.24;26.64;98862.16;5053793;28;20191;-89
2022/06/01 12:07:05;;;;;;;2.20;1.00;;;;;;;37.09;28.04;98853.78;5053701;28;20165;-89
2022/06/01 12:09:43;;;;;;;4.22;1.00;;;;;;;37.34;27.92;98857.63;5069613;28;20212;-90
2022/06/01 12:12:36;;;;;;;5.32;1.48;;;;;;;37.48;28.36;98858.84;5053618;28;20165;-90
2022/06/01 12:15:01;;;;;;;10.95;3.97;;;;;;;37.13;28.39;98855.78;5053332;28;20219;-89
2022/06/01 12:17:34;;;;;;;2.88;1.20;;;;;;;37.17;28.03;98853.31;5052917;28;20185;-90